createdAt,value
2023-01-17T00:00:32.730Z,3.55
2023-01-17T00:02:59.310Z,5.35
2023-01-17T00:05:44.433Z,4.68
2023-01-17T00:08:32.582Z,6.00
2023-01-17T00:10:59.237Z,2.75
2023-01-17T00:13:25.592Z,7.80
2023-01-17T00:15:52.203Z,2.70
2023-01-17T00:18:18.739Z,3.75
2023-01-17T00:21:03.904Z,5.30
2023-01-17T00:23:48.690Z,4.72
2023-01-17T00:26:18.210Z,3.67
2023-01-17T00:28:45.775Z,2.33
2023-01-17T00:31:14.368Z,6.85
2023-01-17T00:33:40.838Z,4.22
2023-01-17T00:36:08.120Z,2.63
2023-01-17T00:38:37.640Z,4.10
2023-01-17T00:41:07.561Z,3.35
2023-01-17T00:43:52.727Z,3.17
2023-01-17T00:46:38.228Z,4.13
2023-01-17T00:49:24.044Z,3.67
2023-01-17T00:52:09.047Z,2.50
2023-01-17T00:54:53.864Z,2.40
2023-01-17T00:57:38.745Z,3.78
2023-01-17T01:00:24.589Z,2.90
2023-01-17T01:03:09.439Z,3.50
2023-01-17T01:05:55.728Z,3.33
2023-01-17T01:08:48.122Z,4.00
2023-01-17T01:11:36.013Z,3.72
2023-01-17T01:14:22.350Z,3.00
2023-01-17T01:17:07.845Z,3.70
2023-01-17T01:19:52.844Z,2.88
2023-01-17T01:22:37.844Z,2.83
2023-01-17T01:25:23.227Z,5.85
2023-01-17T01:28:08.158Z,4.68
2023-01-17T01:30:53.454Z,2.85
2023-01-17T01:33:20.255Z,5.22
2023-01-17T01:35:51.540Z,3.88
2023-01-17T01:38:19.739Z,3.78
2023-01-17T01:40:51.440Z,2.53
2023-01-17T01:43:20.883Z,3.90
2023-01-17T01:45:53.085Z,4.15
2023-01-17T01:48:33.569Z,4.68
2023-01-17T01:51:04.236Z,2.97
2023-01-17T01:53:34.580Z,2.88
2023-01-17T01:56:02.141Z,5.03
2023-01-17T01:58:34.096Z,3.90
2023-01-17T02:01:00.978Z,3.85
2023-01-17T02:03:31.489Z,5.45
2023-01-17T02:06:09.161Z,2.67
2023-01-17T02:08:36.292Z,5.20
2023-01-17T02:11:02.989Z,4.10
2023-01-17T02:13:31.344Z,3.40
2023-01-17T02:16:44.231Z,3.30
2023-01-17T02:19:48.217Z,3.17
2023-01-17T02:22:24.644Z,4.93
2023-01-17T02:25:28.563Z,3.78
2023-01-17T02:28:32.365Z,4.10
2023-01-17T02:31:04.625Z,6.82
2023-01-17T02:33:57.485Z,4.97
2023-01-17T02:36:31.750Z,5.00
2023-01-17T02:39:07.255Z,7.70
2023-01-17T02:41:38.865Z,5.57
2023-01-17T02:44:10.153Z,5.93
2023-01-17T02:46:48.375Z,6.90
2023-01-17T02:49:17.357Z,9.00
2023-01-17T02:52:07.663Z,5.10
2023-01-17T02:54:53.340Z,6.93
2023-01-17T02:57:32.256Z,5.85
2023-01-17T03:00:13.925Z,6.68
2023-01-17T03:03:11.955Z,7.80
2023-01-17T03:05:46.160Z,7.47
2023-01-17T03:08:13.295Z,10.43
2023-01-17T03:10:41.207Z,7.75
2023-01-17T03:13:07.687Z,8.30
2023-01-17T03:15:34.092Z,8.73
2023-01-17T03:18:04.985Z,7.90
2023-01-17T03:20:31.505Z,8.02
2023-01-17T03:22:57.882Z,7.60
2023-01-17T03:25:24.261Z,8.57
2023-01-17T03:27:50.644Z,8.48
2023-01-17T03:30:17.647Z,7.75
2023-01-17T03:32:44.028Z,9.32
2023-01-17T03:35:10.525Z,9.95
2023-01-17T03:37:36.881Z,9.60
2023-01-17T03:40:03.887Z,10.32
2023-01-17T03:42:30.235Z,9.68
2023-01-17T03:44:56.689Z,12.82
2023-01-17T03:47:23.022Z,13.90
2023-01-17T03:49:49.436Z,11.95
2023-01-17T03:52:15.868Z,14.77
2023-01-17T03:54:42.360Z,16.05
2023-01-17T03:57:10.832Z,16.73
2023-01-17T03:59:37.333Z,15.02
2023-01-17T04:02:03.965Z,13.77
2023-01-17T04:04:30.507Z,16.30
2023-01-17T04:06:57.007Z,15.13
2023-01-17T04:09:23.357Z,14.63
2023-01-17T04:11:50.876Z,16.95
2023-01-17T04:14:17.643Z,17.10
2023-01-17T04:16:44.393Z,16.40
2023-01-17T04:19:13.284Z,16.58
2023-01-17T04:21:39.944Z,16.63
2023-01-17T04:24:06.728Z,15.82
2023-01-17T04:26:33.368Z,9.85
2023-01-17T04:28:59.721Z,5.88
2023-01-17T04:31:26.328Z,6.82
2023-01-17T04:33:52.833Z,6.57
2023-01-17T04:36:19.310Z,7.53
2023-01-17T04:38:45.655Z,8.10
2023-01-17T04:41:12.179Z,9.20
2023-01-17T04:43:38.725Z,8.43
2023-01-17T04:46:09.800Z,9.55
2023-01-17T04:48:36.535Z,8.15
2023-01-17T04:51:04.989Z,8.70
2023-01-17T04:53:32.096Z,8.57
2023-01-17T04:55:58.495Z,8.85
2023-01-17T04:58:24.872Z,7.55
2023-01-17T05:00:51.696Z,7.72
2023-01-17T05:03:18.953Z,8.10
2023-01-17T05:05:45.497Z,8.65
2023-01-17T05:08:11.992Z,8.52
2023-01-17T05:10:38.371Z,10.90
2023-01-17T05:13:04.877Z,10.45
2023-01-17T05:15:31.310Z,10.70
2023-01-17T05:17:57.935Z,12.23
2023-01-17T05:20:26.296Z,13.52
2023-01-17T05:22:57.077Z,11.20
2023-01-17T05:25:25.506Z,12.55
2023-01-17T05:27:52.535Z,12.02
2023-01-17T05:30:19.893Z,12.77
2023-01-17T05:32:54.058Z,11.95
2023-01-17T05:35:24.450Z,15.07
2023-01-17T05:37:51.713Z,14.55
2023-01-17T05:40:20.371Z,12.52
2023-01-17T05:42:48.091Z,14.77
2023-01-17T05:45:16.998Z,14.20
2023-01-17T05:47:44.569Z,11.25
2023-01-17T05:50:19.360Z,13.07
2023-01-17T05:52:53.389Z,14.88
2023-01-17T05:55:20.835Z,10.77
2023-01-17T05:57:47.467Z,13.50
2023-01-17T06:00:14.838Z,9.32
2023-01-17T06:02:41.489Z,5.97
2023-01-17T06:05:08.216Z,4.60
2023-01-17T06:07:34.619Z,5.07
2023-01-17T06:10:02.296Z,3.58
2023-01-17T06:12:28.837Z,6.15
2023-01-17T06:14:55.371Z,4.13
2023-01-17T06:17:21.819Z,1.70
2023-01-17T06:19:48.240Z,1.63
2023-01-17T06:22:14.630Z,2.78
2023-01-17T06:24:41.061Z,1.88
2023-01-17T06:27:09.704Z,1.55
2023-01-17T06:29:36.464Z,1.40
2023-01-17T06:32:03.080Z,4.13
2023-01-17T06:34:29.520Z,1.60
2023-01-17T06:36:56.067Z,4.30
2023-01-17T06:39:22.596Z,2.17
2023-01-17T06:41:49.243Z,2.60
2023-01-17T06:44:15.739Z,5.70
2023-01-17T06:46:42.497Z,3.72
2023-01-17T06:49:12.125Z,2.80
2023-01-17T06:51:38.710Z,2.60
2023-01-17T06:54:13.236Z,4.53
2023-01-17T06:56:39.825Z,2.03
2023-01-17T06:59:06.281Z,3.20
2023-01-17T07:01:32.915Z,4.13
2023-01-17T07:03:59.398Z,2.97
2023-01-17T07:06:31.956Z,6.93
2023-01-17T07:08:59.076Z,7.63
2023-01-17T07:11:27.232Z,7.72
2023-01-17T07:13:54.069Z,5.63
2023-01-17T07:16:20.620Z,9.45
2023-01-17T07:18:47.065Z,4.47
2023-01-17T07:21:14.813Z,5.32
2023-01-17T07:23:41.642Z,5.85
2023-01-17T07:26:08.205Z,8.85
2023-01-17T07:28:34.716Z,6.35
2023-01-17T07:31:06.808Z,8.50
2023-01-17T07:33:33.533Z,4.10
2023-01-17T07:36:04.791Z,7.38
2023-01-17T07:38:31.362Z,9.50
2023-01-17T07:40:59.534Z,7.95
2023-01-17T07:43:26.160Z,5.68
2023-01-17T07:45:57.441Z,9.02
2023-01-17T07:48:25.775Z,5.63
2023-01-17T07:50:56.797Z,8.18
2023-01-17T07:53:25.458Z,7.28
2023-01-17T07:55:52.394Z,12.80
2023-01-17T07:58:19.140Z,11.73
2023-01-17T08:00:45.937Z,12.70
2023-01-17T08:03:14.745Z,12.98
2023-01-17T08:05:44.198Z,7.82
2023-01-17T08:08:10.589Z,13.82
2023-01-17T08:10:37.018Z,9.52
2023-01-17T08:13:03.530Z,7.72
2023-01-17T08:15:36.083Z,11.35
2023-01-17T08:18:02.599Z,14.77
2023-01-17T08:20:29.021Z,9.00
2023-01-17T08:22:56.606Z,6.82
2023-01-17T08:25:24.881Z,10.30
2023-01-17T08:27:56.087Z,6.18
2023-01-17T08:30:22.735Z,6.82
2023-01-17T08:32:49.099Z,10.13
2023-01-17T08:35:15.658Z,11.00
2023-01-17T08:37:42.111Z,11.10
2023-01-17T08:40:10.546Z,10.23
2023-01-17T08:42:43.926Z,6.38
2023-01-17T08:45:11.779Z,5.95
2023-01-17T08:47:38.206Z,6.88
2023-01-17T08:50:06.874Z,5.47
2023-01-17T08:52:34.247Z,5.35
2023-01-17T08:55:00.771Z,7.47
2023-01-17T08:57:27.517Z,8.98
2023-01-17T08:59:54.002Z,10.13
2023-01-17T09:02:20.621Z,5.97
2023-01-17T09:04:49.494Z,9.93
2023-01-17T09:07:18.356Z,10.27
2023-01-17T09:09:44.887Z,9.82
2023-01-17T09:12:11.661Z,6.68
2023-01-17T09:14:38.195Z,10.13
2023-01-17T09:17:08.261Z,10.88
2023-01-17T09:19:35.678Z,10.82
2023-01-17T09:22:04.638Z,6.30
2023-01-17T09:24:32.792Z,12.60
2023-01-17T09:27:00.257Z,8.73
2023-01-17T09:29:26.891Z,10.82
2023-01-17T09:31:54.437Z,8.43
2023-01-17T09:34:25.332Z,6.95
2023-01-17T09:36:51.759Z,9.13
2023-01-17T09:39:18.653Z,12.07
2023-01-17T09:41:52.687Z,6.65
2023-01-17T09:44:24.630Z,8.48
2023-01-17T09:47:02.010Z,10.68
2023-01-17T09:49:39.936Z,10.20
2023-01-17T09:52:11.068Z,6.55
2023-01-17T09:54:43.313Z,13.18
2023-01-17T09:57:39.028Z,11.02
2023-01-17T10:00:44.194Z,4.95
2023-01-17T10:03:45.691Z,7.93
2023-01-17T10:06:22.329Z,6.32
2023-01-17T10:09:18.341Z,15.75
2023-01-17T10:11:53.805Z,7.25
2023-01-17T10:14:41.219Z,8.05
2023-01-17T10:17:16.031Z,11.23
2023-01-17T10:19:59.649Z,8.60
2023-01-17T10:22:31.015Z,14.25
2023-01-17T10:25:33.120Z,6.28
2023-01-17T10:28:12.921Z,9.57
2023-01-17T10:30:48.635Z,6.13
2023-01-17T10:33:19.577Z,10.18
2023-01-17T10:35:54.525Z,10.13
2023-01-17T10:38:26.559Z,6.40
2023-01-17T10:41:30.000Z,10.55
2023-01-17T10:44:11.434Z,6.07
2023-01-17T10:47:05.406Z,15.48
2023-01-17T10:49:31.906Z,8.35
2023-01-17T10:52:02.004Z,3.10
2023-01-17T10:54:51.338Z,7.15
2023-01-17T10:57:22.012Z,5.22
2023-01-17T10:59:49.341Z,7.10
2023-01-17T11:02:21.609Z,7.15
2023-01-17T11:04:54.270Z,7.32
2023-01-17T11:07:25.620Z,8.75
2023-01-17T11:09:54.525Z,10.63
2023-01-17T11:12:46.993Z,5.88
2023-01-17T11:15:13.280Z,5.50
2023-01-17T11:18:01.821Z,3.47
2023-01-17T11:20:40.259Z,9.90
2023-01-17T11:23:15.208Z,7.15
2023-01-17T11:25:52.997Z,5.78
2023-01-17T11:28:39.653Z,6.15
2023-01-17T11:31:23.117Z,7.35
2023-01-17T11:34:05.335Z,9.70
2023-01-17T11:36:32.734Z,9.73
2023-01-17T11:39:21.726Z,4.55
2023-01-17T11:41:48.599Z,10.30
2023-01-17T11:44:27.335Z,8.10
2023-01-17T11:47:11.796Z,7.28
2023-01-17T11:49:39.878Z,5.10
2023-01-17T11:52:26.196Z,5.97
2023-01-17T11:54:55.805Z,5.50
2023-01-17T11:57:33.281Z,4.97
2023-01-17T12:00:24.656Z,6.10
2023-01-17T12:03:13.825Z,5.15
2023-01-17T12:06:08.101Z,5.63
2023-01-17T12:08:59.265Z,3.50
2023-01-17T12:11:36.009Z,8.80
2023-01-17T12:14:36.464Z,4.20
2023-01-17T12:17:33.398Z,4.90
2023-01-17T12:20:05.746Z,6.40
2023-01-17T12:22:53.535Z,5.07
2023-01-17T12:25:29.100Z,5.85
2023-01-17T12:27:55.483Z,3.60
2023-01-17T12:30:35.349Z,9.23
2023-01-17T12:33:08.653Z,2.72
2023-01-17T12:35:53.904Z,5.50
2023-01-17T12:38:35.424Z,1.52
2023-01-17T12:41:17.506Z,5.60
2023-01-17T12:43:44.744Z,8.43
2023-01-17T12:46:24.551Z,4.72
2023-01-17T12:48:55.925Z,8.52
2023-01-17T12:51:30.257Z,8.05
2023-01-17T12:54:08.539Z,5.72
2023-01-17T12:56:41.777Z,9.40
2023-01-17T12:59:20.091Z,4.68
2023-01-17T13:01:57.657Z,6.05
2023-01-17T13:04:34.159Z,10.93
2023-01-17T13:07:00.794Z,4.63
2023-01-17T13:09:32.874Z,1.88
2023-01-17T13:12:12.794Z,3.60
2023-01-17T13:14:39.183Z,6.22
2023-01-17T13:17:34.044Z,3.85
2023-01-17T13:20:14.149Z,5.68
2023-01-17T13:22:42.841Z,7.53
2023-01-17T13:25:24.527Z,6.97
2023-01-17T13:28:03.128Z,4.22
2023-01-17T13:30:43.136Z,5.53
2023-01-17T13:33:37.437Z,4.00
2023-01-17T13:36:25.366Z,4.90
2023-01-17T13:39:27.130Z,4.57
2023-01-17T13:42:08.830Z,7.35
2023-01-17T13:44:36.348Z,4.82
2023-01-17T13:47:10.189Z,5.38
2023-01-17T13:49:49.447Z,7.80
2023-01-17T13:52:18.825Z,6.90
2023-01-17T13:54:56.510Z,4.75
2023-01-17T13:57:22.993Z,6.88
2023-01-17T13:59:53.077Z,5.05
2023-01-17T14:02:31.715Z,6.13
2023-01-17T14:05:37.764Z,9.68
2023-01-17T14:08:12.999Z,11.07
2023-01-17T14:10:47.230Z,4.05
2023-01-17T14:13:36.295Z,5.95
2023-01-17T14:16:26.308Z,3.40
2023-01-17T14:18:54.433Z,6.10
2023-01-17T14:21:25.274Z,7.57
2023-01-17T14:23:58.679Z,6.50
2023-01-17T14:26:53.835Z,5.38
2023-01-17T14:29:42.427Z,4.47
2023-01-17T14:32:12.362Z,5.15
2023-01-17T14:34:39.099Z,4.03
2023-01-17T14:37:17.357Z,7.60
2023-01-17T14:39:46.091Z,5.90
2023-01-17T14:42:15.584Z,6.20
2023-01-17T14:44:49.096Z,5.40
2023-01-17T14:47:16.589Z,3.90
2023-01-17T14:49:43.885Z,6.80
2023-01-17T14:52:16.200Z,7.38
2023-01-17T14:54:50.925Z,6.13
2023-01-17T14:57:28.603Z,5.10
2023-01-17T15:00:20.291Z,4.30
2023-01-17T15:02:48.407Z,5.78
2023-01-17T15:05:17.100Z,5.03
2023-01-17T15:07:46.844Z,6.03
2023-01-17T15:10:15.901Z,5.75
2023-01-17T15:12:46.512Z,10.43
2023-01-17T15:15:35.581Z,7.10
2023-01-17T15:18:10.113Z,7.63
2023-01-17T15:20:37.698Z,5.35
2023-01-17T15:23:05.342Z,7.50
2023-01-17T15:25:32.112Z,6.55
2023-01-17T15:27:59.057Z,4.32
2023-01-17T15:30:25.645Z,4.25
2023-01-17T15:32:52.923Z,4.82
2023-01-17T15:35:20.567Z,9.50
2023-01-17T15:37:52.646Z,7.45
2023-01-17T15:40:25.441Z,3.55
2023-01-17T15:42:59.066Z,11.02
2023-01-17T15:45:32.576Z,13.63
2023-01-17T15:48:38.933Z,15.07
2023-01-17T15:51:05.679Z,16.35
2023-01-17T15:53:35.308Z,13.40
2023-01-17T15:56:20.636Z,4.57
2023-01-17T15:58:50.013Z,7.20
2023-01-17T16:01:23.801Z,4.15
2023-01-17T16:03:54.797Z,13.02
2023-01-17T16:06:45.809Z,9.70
2023-01-17T16:09:23.236Z,4.63
2023-01-17T16:11:49.644Z,10.40
2023-01-17T16:14:16.833Z,12.82
2023-01-17T16:16:54.084Z,19.42
2023-01-17T16:19:21.467Z,7.78
2023-01-17T16:21:48.346Z,9.07
2023-01-17T16:24:15.056Z,15.82
2023-01-17T16:26:41.546Z,12.15
2023-01-17T16:29:08.140Z,9.93
2023-01-17T16:31:35.317Z,9.60
2023-01-17T16:34:01.833Z,7.03
2023-01-17T16:36:28.670Z,9.07
2023-01-17T16:38:55.191Z,8.52
2023-01-17T16:41:22.298Z,10.40
2023-01-17T16:44:06.217Z,14.23
2023-01-17T16:46:33.168Z,23.83
2023-01-17T16:49:01.047Z,12.35
2023-01-17T16:51:28.453Z,9.05
2023-01-17T16:53:54.870Z,13.00
2023-01-17T16:56:23.135Z,8.52
2023-01-17T16:58:51.124Z,12.63
2023-01-17T17:01:20.584Z,12.60
2023-01-17T17:03:47.111Z,8.00
2023-01-17T17:06:13.598Z,9.45
2023-01-17T17:08:39.964Z,8.82
2023-01-17T17:11:18.509Z,11.05
2023-01-17T17:13:46.769Z,10.70
2023-01-17T17:16:26.427Z,10.05
2023-01-17T17:18:58.465Z,9.13
2023-01-17T17:21:25.997Z,12.88
2023-01-17T17:23:57.877Z,11.50
2023-01-17T17:26:27.169Z,7.03
2023-01-17T17:28:54.468Z,10.20
2023-01-17T17:31:20.963Z,9.93
2023-01-17T17:33:47.738Z,9.30
2023-01-17T17:36:14.504Z,12.50
2023-01-17T17:38:53.451Z,14.63
2023-01-17T17:41:31.583Z,11.18
2023-01-17T17:44:00.538Z,13.75
2023-01-17T17:46:27.392Z,14.57
2023-01-17T17:48:53.868Z,14.38
2023-01-17T17:51:22.958Z,19.80
2023-01-17T17:53:50.192Z,20.75
2023-01-17T17:56:16.904Z,16.10
2023-01-17T17:58:46.033Z,11.00
2023-01-17T18:01:12.843Z,16.90
2023-01-17T18:03:39.663Z,13.43
2023-01-17T18:06:08.889Z,10.57
2023-01-17T18:08:36.927Z,14.10
2023-01-17T18:11:07.348Z,10.07
2023-01-17T18:13:34.120Z,15.27
2023-01-17T18:16:04.650Z,17.42
2023-01-17T18:18:32.199Z,5.55
2023-01-17T18:21:28.930Z,13.98
2023-01-17T18:24:04.181Z,12.65
2023-01-17T18:26:33.920Z,15.13
2023-01-17T18:29:01.978Z,10.35
2023-01-17T18:31:30.154Z,19.15
2023-01-17T18:34:03.964Z,16.05
2023-01-17T18:36:30.554Z,11.15
2023-01-17T18:38:57.040Z,16.88
2023-01-17T18:41:26.443Z,39.85
2023-01-17T18:43:53.177Z,24.40
2023-01-17T18:46:20.188Z,22.90
2023-01-17T18:48:47.251Z,26.52
2023-01-17T18:51:15.854Z,13.68
2023-01-17T18:53:44.481Z,13.55
2023-01-17T18:56:13.926Z,13.13
2023-01-17T18:58:42.937Z,21.23
2023-01-17T19:01:21.068Z,20.42
2023-01-17T19:03:49.452Z,24.75
2023-01-17T19:06:20.031Z,26.73
2023-01-17T19:08:48.313Z,15.95
2023-01-17T19:11:15.357Z,25.60
2023-01-17T19:13:41.903Z,40.90
2023-01-17T19:16:12.710Z,15.98
2023-01-17T19:18:39.133Z,17.13
2023-01-17T19:21:16.883Z,22.75
2023-01-17T19:23:43.545Z,21.73
2023-01-17T19:26:11.481Z,18.85
2023-01-17T19:28:40.411Z,20.38
2023-01-17T19:31:12.818Z,20.38
2023-01-17T19:33:42.013Z,17.55
2023-01-17T19:36:11.796Z,18.92
2023-01-17T19:38:38.216Z,16.05
2023-01-17T19:41:26.539Z,17.23
2023-01-17T19:44:01.846Z,17.02
2023-01-17T19:46:28.529Z,20.27
2023-01-17T19:48:56.635Z,16.92
2023-01-17T19:51:24.633Z,22.30
2023-01-17T19:53:51.351Z,17.30
2023-01-17T19:56:20.568Z,20.05
2023-01-17T19:58:49.065Z,22.88
2023-01-17T20:01:18.561Z,27.40
2023-01-17T20:03:46.023Z,19.73
2023-01-17T20:06:14.634Z,31.95
2023-01-17T20:08:41.499Z,14.60
2023-01-17T20:11:10.788Z,15.98
2023-01-17T20:13:37.351Z,28.73
2023-01-17T20:16:06.151Z,22.38
2023-01-17T20:18:33.697Z,24.00
2023-01-17T20:21:05.071Z,15.48
2023-01-17T20:23:36.178Z,16.70
2023-01-17T20:26:04.585Z,28.63
2023-01-17T20:28:35.741Z,17.30
2023-01-17T20:31:17.002Z,15.90
2023-01-17T20:33:45.341Z,27.15
2023-01-17T20:36:14.991Z,17.08
2023-01-17T20:38:44.863Z,16.63
2023-01-17T20:41:23.147Z,25.13
2023-01-17T20:43:55.265Z,20.08
2023-01-17T20:46:24.890Z,35.40
2023-01-17T20:48:53.427Z,16.58
2023-01-17T20:51:20.695Z,15.57
2023-01-17T20:53:51.688Z,17.45
2023-01-17T20:56:18.769Z,17.58
2023-01-17T20:58:45.169Z,15.50
2023-01-17T21:01:20.014Z,16.98
2023-01-17T21:03:49.154Z,20.92
2023-01-17T21:06:15.558Z,12.05
2023-01-17T21:08:45.227Z,14.85
2023-01-17T21:11:15.098Z,15.45
2023-01-17T21:13:42.492Z,18.30
2023-01-17T21:16:10.648Z,11.80
2023-01-17T21:18:37.349Z,15.68
2023-01-17T21:21:07.327Z,16.35
2023-01-17T21:23:38.093Z,13.23
2023-01-17T21:26:06.067Z,14.88
2023-01-17T21:28:35.281Z,18.27
2023-01-17T21:31:07.231Z,20.88
2023-01-17T21:33:33.648Z,22.17
2023-01-17T21:36:08.449Z,18.00
2023-01-17T21:38:34.955Z,19.70
2023-01-17T21:41:01.689Z,18.35
2023-01-17T21:43:28.233Z,21.15
2023-01-17T21:45:54.730Z,16.02
2023-01-17T21:48:21.242Z,19.25
2023-01-17T21:50:47.655Z,19.30
2023-01-17T21:53:14.141Z,23.33
2023-01-17T21:55:59.122Z,21.15
2023-01-17T21:58:44.765Z,23.00
2023-01-17T22:01:18.389Z,20.58
2023-01-17T22:03:48.973Z,15.90
2023-01-17T22:06:15.584Z,15.15
2023-01-17T22:08:42.089Z,16.67
2023-01-17T22:11:14.735Z,14.43
2023-01-17T22:13:42.557Z,17.58
2023-01-17T22:16:11.976Z,19.83
2023-01-17T22:18:39.723Z,16.08
2023-01-17T22:21:12.321Z,24.33
2023-01-17T22:23:39.642Z,16.02
2023-01-17T22:26:10.297Z,19.10
2023-01-17T22:28:37.970Z,23.08
2023-01-17T22:31:20.617Z,23.15
2023-01-17T22:33:51.652Z,20.30
2023-01-17T22:36:18.116Z,23.27
2023-01-17T22:38:44.521Z,21.30
2023-01-17T22:41:15.994Z,28.30
2023-01-17T22:43:44.955Z,26.42
2023-01-17T22:46:15.228Z,24.30
2023-01-17T22:48:42.415Z,25.67
2023-01-17T22:51:11.734Z,24.50
2023-01-17T22:53:49.958Z,24.27
2023-01-17T22:56:19.749Z,25.55
2023-01-17T22:58:48.570Z,25.55
2023-01-17T23:01:20.592Z,24.55
2023-01-17T23:03:52.158Z,31.95
2023-01-17T23:06:21.863Z,27.77
2023-01-17T23:08:50.941Z,23.23
2023-01-17T23:11:40.858Z,25.42
2023-01-17T23:14:16.712Z,26.48
2023-01-17T23:17:04.680Z,30.25
2023-01-17T23:19:42.225Z,27.83
2023-01-17T23:22:18.911Z,33.10
2023-01-17T23:24:53.955Z,29.88
2023-01-17T23:27:47.632Z,26.90
2023-01-17T23:30:15.683Z,27.20
2023-01-17T23:32:47.933Z,25.67
2023-01-17T23:35:15.430Z,30.27
2023-01-17T23:38:00.460Z,29.38
2023-01-17T23:40:27.324Z,31.63
2023-01-17T23:43:12.416Z,32.42
2023-01-17T23:45:39.533Z,26.70
2023-01-17T23:48:11.554Z,32.38
2023-01-17T23:50:40.277Z,37.08
2023-01-17T23:53:07.415Z,34.67
2023-01-17T23:55:40.232Z,31.60
2023-01-17T23:58:09.672Z,32.55
